메인 페이지
METAR-TAF:

METAR-TAF

공항 :

카미실리, 시리아

위도: 37-03N, 경도: 041-13E, 고도: 455m

현재 날씨관측

예보는 20분 전, 14:00시(UTC)에 발표되었습니다.
10kt
온도 12°C
습도 88%
기압 1017 hPa
시정: 0900m
고도 800ft 상공 구름 조금
고도 2600ft 상공 구름 보통
고도 10000ft 상공 흐림
안개

METAR: OSKL 141400Z 09010KT 0900 FG FEW008 SCT026 OVC100 12/10 Q1017

시각: 16:20 (14:20 UTC)

예보

예보는 21 시간 20분 전, 17:00시(UTC)에 발표되었습니다.
예보 대상 시간: 12일 18시부터 13일 18시까지 (UTC)
남남동12kt, 순간 최대 풍속 25kt
시정: 4000m
고도 2600ft 상공 구름 보통, 적란운.
고도 10000ft 상공 구름 많음
뇌우, 비
일시적
13일 06시부터 13일 18시까지 (UTC)
남서15kt, 순간 최대 풍속 25kt
시정: 5000m

TAF: OSKL 121700Z 1218/1318 15012G25KT 4000 TSRA SCT026CB S030 BKN100 TEMPO 1306/1318 23015G25KT 5000

4,000개 이상의 공항 관측 자료 및 예보 (METAR 및 TAF 보고).

지도상에서 검색 가능한 기상관측소가 노란 점과 빨간 점으로 표시되어 있습니다.

기상관측소 명을 보려면 표시 위로 마우스를 이동하세요.

날씨 관측과 예보를 보려면 클릭하세요.

지도 변경 : 확대하려면 엑스 표시가 있는 녹색 버튼, 축소하려면 빼기 표시가 있는 녹색 버튼, 다음 페이지의 지도를 보려면 녹색 화살표를 클릭하세요.


METAR-TAF: